createdAt,value
2023-03-10T00:04:46.065Z,46.31
2023-03-10T00:05:46.059Z,47.10
2023-03-10T00:06:46.022Z,46.08
2023-03-10T00:07:46.000Z,47.12
2023-03-10T00:08:45.981Z,45.43
2023-03-10T00:09:45.973Z,46.37
2023-03-10T00:10:45.961Z,46.79
2023-03-10T00:11:45.962Z,46.60
2023-03-10T00:12:45.954Z,45.09
2023-03-10T00:13:45.930Z,44.60
2023-03-10T00:14:45.916Z,44.89
2023-03-10T00:15:45.976Z,45.39
2023-03-10T00:16:45.903Z,44.89
2023-03-10T00:17:45.892Z,46.45
2023-03-10T00:18:45.870Z,46.12
2023-03-10T00:19:45.857Z,47.34
2023-03-10T00:20:45.842Z,47.60
2023-03-10T00:21:45.850Z,46.18
2023-03-10T00:22:45.827Z,46.36
2023-03-10T00:23:45.820Z,47.67
2023-03-10T00:24:45.803Z,49.22
2023-03-10T00:25:45.792Z,48.57
2023-03-10T00:26:45.789Z,45.59
2023-03-10T00:27:45.777Z,46.43
2023-03-10T00:28:45.764Z,46.39
2023-03-10T00:29:45.754Z,48.94
2023-03-10T00:30:45.809Z,52.24
2023-03-10T00:31:45.744Z,48.96
2023-03-10T00:32:45.759Z,45.50
2023-03-10T00:33:45.705Z,45.27
2023-03-10T00:34:45.698Z,44.95
2023-03-10T00:35:45.717Z,44.84
2023-03-10T00:36:45.682Z,45.33
2023-03-10T00:37:45.669Z,47.10
2023-03-10T00:38:45.655Z,50.03
2023-03-10T00:39:45.647Z,50.13
2023-03-10T00:40:45.626Z,57.14
2023-03-10T00:41:45.631Z,51.66
2023-03-10T00:42:45.607Z,48.90
2023-03-10T00:43:45.597Z,51.57
2023-03-10T00:44:45.591Z,50.02
2023-03-10T00:45:45.583Z,48.95
2023-03-10T00:46:45.610Z,51.25
2023-03-10T00:47:45.559Z,56.74
2023-03-10T00:48:45.545Z,56.20
2023-03-10T00:49:45.534Z,52.96
2023-03-10T00:50:45.527Z,50.24
2023-03-10T00:51:45.535Z,49.39
2023-03-10T00:52:45.504Z,48.57
2023-03-10T00:53:45.492Z,47.77
2023-03-10T00:54:45.475Z,45.52
2023-03-10T00:55:45.465Z,47.50
2023-03-10T00:56:45.459Z,49.47
2023-03-10T00:57:45.462Z,51.70
2023-03-10T00:58:45.435Z,51.98
2023-03-10T00:59:50.278Z,51.92
2023-03-10T01:00:46.429Z,54.18
2023-03-10T01:01:45.519Z,52.45
2023-03-10T01:02:45.404Z,51.69
2023-03-10T01:03:45.389Z,52.75
2023-03-10T01:04:45.430Z,51.46
2023-03-10T01:05:45.368Z,50.68
2023-03-10T01:06:45.353Z,50.07
2023-03-10T01:07:45.361Z,51.74
2023-03-10T01:08:45.338Z,52.05
2023-03-10T01:09:45.332Z,49.96
2023-03-10T01:10:45.315Z,49.03
2023-03-10T01:11:45.317Z,49.89
2023-03-10T01:12:45.295Z,50.07
2023-03-10T01:13:45.277Z,50.23
2023-03-10T01:14:45.271Z,48.85
2023-03-10T01:15:45.303Z,49.12
2023-03-10T01:16:45.250Z,50.49
2023-03-10T01:17:45.262Z,49.60
2023-03-10T01:18:45.234Z,51.20
2023-03-10T01:19:45.210Z,50.48
2023-03-10T01:20:45.204Z,49.20
2023-03-10T01:21:45.197Z,49.63
2023-03-10T01:22:45.191Z,47.97
2023-03-10T01:23:45.174Z,50.06
2023-03-10T01:24:45.166Z,54.43
2023-03-10T01:25:45.152Z,56.69
2023-03-10T01:26:45.143Z,58.29
2023-03-10T01:27:45.147Z,57.03
2023-03-10T01:28:45.119Z,58.59
2023-03-10T01:29:45.113Z,56.52
2023-03-10T01:30:45.105Z,55.35
2023-03-10T01:31:45.177Z,55.98
2023-03-10T01:32:45.173Z,52.01
2023-03-10T01:33:45.070Z,48.73
2023-03-10T01:34:45.063Z,47.85
2023-03-10T01:35:45.118Z,47.23
2023-03-10T01:36:45.038Z,45.86
2023-03-10T01:37:45.040Z,46.56
2023-03-10T01:38:45.013Z,47.69
2023-03-10T01:39:45.073Z,46.61
2023-03-10T01:40:44.989Z,48.13
2023-03-10T01:41:44.980Z,47.66
2023-03-10T01:42:44.979Z,48.73
2023-03-10T01:43:44.965Z,48.74
2023-03-10T01:44:44.948Z,48.41
2023-03-10T01:45:44.944Z,48.84
2023-03-10T01:46:45.039Z,49.04
2023-03-10T01:47:44.935Z,47.25
2023-03-10T01:48:44.903Z,47.13
2023-03-10T01:49:44.914Z,46.79
2023-03-10T01:50:44.878Z,47.92
2023-03-10T01:51:44.874Z,46.59
2023-03-10T01:52:44.867Z,46.84
2023-03-10T01:53:44.847Z,45.64
2023-03-10T01:54:44.839Z,46.44
2023-03-10T01:55:44.829Z,46.04
2023-03-10T01:56:44.810Z,46.51
2023-03-10T01:57:44.862Z,46.91
2023-03-10T01:58:44.788Z,48.84
2023-03-10T01:59:44.787Z,50.08
2023-03-10T02:00:44.815Z,47.07
2023-03-10T02:01:44.825Z,47.49
2023-03-10T02:02:44.758Z,48.06
2023-03-10T02:03:44.740Z,47.14
2023-03-10T02:04:44.729Z,46.17
2023-03-10T02:05:44.713Z,45.90
2023-03-10T02:06:44.707Z,48.41
2023-03-10T02:07:44.726Z,48.43
2023-03-10T02:08:44.733Z,51.52
2023-03-10T02:09:44.674Z,52.95
2023-03-10T02:10:44.663Z,52.95
2023-03-10T02:11:44.649Z,49.61
2023-03-10T02:12:44.649Z,51.44
2023-03-10T02:13:44.637Z,50.54
2023-03-10T02:14:44.633Z,48.47
2023-03-10T02:15:44.613Z,49.88
2023-03-10T02:16:44.688Z,48.71
2023-03-10T02:17:44.688Z,47.25
2023-03-10T02:18:44.600Z,48.18
2023-03-10T02:19:44.567Z,48.10
2023-03-10T02:20:44.633Z,50.29
2023-03-10T02:21:44.575Z,47.25
2023-03-10T02:22:44.576Z,47.29
2023-03-10T02:23:51.408Z,48.20
2023-03-10T02:24:45.512Z,48.61
2023-03-10T02:25:44.501Z,50.35
2023-03-10T02:26:44.492Z,50.62
2023-03-10T02:27:44.608Z,50.98
2023-03-10T02:28:44.477Z,52.55
2023-03-10T02:29:58.034Z,53.03
2023-03-10T02:30:45.450Z,51.17
2023-03-10T02:31:44.505Z,49.78
2023-03-10T02:32:44.595Z,49.20
2023-03-10T02:33:44.425Z,50.37
2023-03-10T02:34:44.407Z,50.89
2023-03-10T02:35:44.411Z,49.38
2023-03-10T02:36:44.388Z,48.23
2023-03-10T02:37:44.378Z,48.42
2023-03-10T02:38:44.373Z,49.35
2023-03-10T02:39:44.353Z,50.14
2023-03-10T02:40:44.341Z,50.41
2023-03-10T02:41:45.544Z,49.44
2023-03-10T02:42:44.341Z,47.44
2023-03-10T02:43:44.386Z,49.42
2023-03-10T02:44:44.299Z,50.86
2023-03-10T02:45:44.336Z,51.66
2023-03-10T02:46:44.304Z,48.98
2023-03-10T02:47:44.264Z,49.88
2023-03-10T02:48:44.272Z,52.26
2023-03-10T02:49:44.247Z,52.15
2023-03-10T02:50:44.232Z,52.28
2023-03-10T02:51:44.233Z,53.85
2023-03-10T02:52:44.209Z,55.22
2023-03-10T02:53:44.206Z,54.85
2023-03-10T02:54:44.185Z,54.60
2023-03-10T02:55:44.184Z,52.67
2023-03-10T02:56:44.162Z,53.61
2023-03-10T02:57:44.162Z,53.95
2023-03-10T02:58:44.211Z,55.56
2023-03-10T02:59:44.134Z,54.97
2023-03-10T03:00:44.131Z,53.22
2023-03-10T03:01:44.108Z,51.73
2023-03-10T03:02:44.092Z,52.86
2023-03-10T03:03:44.141Z,53.50
2023-03-10T03:04:44.078Z,53.75
2023-03-10T03:05:44.062Z,55.46
2023-03-10T03:06:44.052Z,57.22
2023-03-10T03:07:44.038Z,57.08
2023-03-10T03:08:44.054Z,55.96
2023-03-10T03:09:44.022Z,56.10
2023-03-10T03:10:44.010Z,56.17
2023-03-10T03:11:43.994Z,58.23
2023-03-10T03:12:43.976Z,57.80
2023-03-10T03:13:43.978Z,57.02
2023-03-10T03:14:43.961Z,59.16
2023-03-10T03:15:44.060Z,59.73
2023-03-10T03:16:43.974Z,58.56
2023-03-10T03:17:43.923Z,61.85
2023-03-10T03:18:43.922Z,60.82
2023-03-10T03:19:43.904Z,61.86
2023-03-10T03:20:43.888Z,65.43
2023-03-10T03:21:43.881Z,66.34
2023-03-10T03:22:43.867Z,64.77
2023-03-10T03:23:43.870Z,66.55
2023-03-10T03:24:43.865Z,68.42
2023-03-10T03:25:43.834Z,66.18
2023-03-10T03:26:43.824Z,65.51
2023-03-10T03:27:43.811Z,67.14
2023-03-10T03:28:43.827Z,68.39
2023-03-10T03:29:43.791Z,69.31
2023-03-10T03:30:43.788Z,66.18
2023-03-10T03:31:43.861Z,65.72
2023-03-10T03:32:43.812Z,66.84
2023-03-10T03:33:43.750Z,61.97
2023-03-10T03:34:43.753Z,61.08
2023-03-10T03:35:43.774Z,62.94
2023-03-10T03:36:43.717Z,68.12
2023-03-10T03:37:43.712Z,69.21
2023-03-10T03:38:43.700Z,68.93
2023-03-10T03:39:43.781Z,65.72
2023-03-10T03:40:43.675Z,62.12
2023-03-10T03:41:43.664Z,59.73
2023-03-10T03:42:43.652Z,57.58
2023-03-10T03:43:43.642Z,54.00
2023-03-10T03:44:43.646Z,59.53
2023-03-10T03:45:43.859Z,59.03
2023-03-10T03:46:43.613Z,64.21
2023-03-10T03:47:43.601Z,62.02
2023-03-10T03:48:43.588Z,57.55
2023-03-10T03:49:43.583Z,54.19
2023-03-10T03:50:43.567Z,52.03
2023-03-10T03:51:43.556Z,51.63
2023-03-10T03:52:43.547Z,50.37
2023-03-10T03:53:43.547Z,49.32
2023-03-10T03:54:43.534Z,51.15
2023-03-10T03:55:43.525Z,50.36
2023-03-10T03:56:43.505Z,49.85
2023-03-10T03:57:43.496Z,49.93
2023-03-10T03:58:43.489Z,49.18
2023-03-10T03:59:43.483Z,49.12
2023-03-10T04:00:43.463Z,49.54
2023-03-10T04:01:43.454Z,48.99
2023-03-10T04:02:43.491Z,49.35
2023-03-10T04:03:43.472Z,48.91
2023-03-10T04:04:43.435Z,49.35
2023-03-10T04:05:43.547Z,50.05
2023-03-10T04:06:43.395Z,49.32
2023-03-10T04:07:43.389Z,49.28
2023-03-10T04:08:43.378Z,50.29
2023-03-10T04:09:43.370Z,49.99
2023-03-10T04:10:43.355Z,53.97
2023-03-10T04:11:43.338Z,51.82
2023-03-10T04:12:43.339Z,48.86
2023-03-10T04:13:43.314Z,48.12
2023-03-10T04:14:43.324Z,48.81
2023-03-10T04:15:43.310Z,57.68
2023-03-10T04:16:43.289Z,49.34
2023-03-10T04:17:43.281Z,54.59
2023-03-10T04:18:43.264Z,51.70
2023-03-10T04:19:44.696Z,52.23
2023-03-10T04:20:43.242Z,48.14
2023-03-10T04:21:43.233Z,53.45
2023-03-10T04:22:43.225Z,53.69
2023-03-10T04:23:43.208Z,51.43
2023-03-10T04:24:43.212Z,50.51
2023-03-10T04:25:43.187Z,50.67
2023-03-10T04:26:43.202Z,55.95
2023-03-10T04:27:43.191Z,54.61
2023-03-10T04:28:43.160Z,47.69
2023-03-10T04:29:43.155Z,49.14
2023-03-10T04:30:43.136Z,55.46
2023-03-10T04:31:48.305Z,48.86
2023-03-10T04:32:44.191Z,48.80
2023-03-10T04:33:43.103Z,48.61
2023-03-10T04:34:43.103Z,49.64
2023-03-10T04:35:43.123Z,50.39
2023-03-10T04:36:43.068Z,50.77
2023-03-10T04:37:43.057Z,49.27
2023-03-10T04:38:43.069Z,53.65
2023-03-10T04:39:43.082Z,53.89
2023-03-10T04:40:43.025Z,51.27
2023-03-10T04:41:43.047Z,48.50
2023-03-10T04:42:43.026Z,49.55
2023-03-10T04:43:45.068Z,51.44
2023-03-10T04:44:43.104Z,47.35
2023-03-10T04:45:43.023Z,55.35
2023-03-10T04:46:43.110Z,49.34
2023-03-10T04:47:42.959Z,51.23
2023-03-10T04:48:42.954Z,48.18
2023-03-10T04:49:42.939Z,51.42
2023-03-10T04:50:42.971Z,51.70
2023-03-10T04:51:42.916Z,50.08
2023-03-10T04:52:42.899Z,49.83
2023-03-10T04:53:42.892Z,51.77
2023-03-10T04:54:42.888Z,51.64
2023-03-10T04:55:42.862Z,49.93
2023-03-10T04:56:42.866Z,50.82
2023-03-10T04:57:42.843Z,48.29
2023-03-10T04:58:42.843Z,48.09
2023-03-10T04:59:42.836Z,50.09
2023-03-10T05:00:56.464Z,50.02
2023-03-10T05:01:43.905Z,50.35
2023-03-10T05:02:42.788Z,49.27
2023-03-10T05:03:42.782Z,48.90
2023-03-10T05:04:42.879Z,52.54
2023-03-10T05:05:42.754Z,53.76
2023-03-10T05:06:42.748Z,49.12
2023-03-10T05:07:42.732Z,57.32
2023-03-10T05:08:42.721Z,49.38
2023-03-10T05:09:42.745Z,46.85
2023-03-10T05:10:42.705Z,49.94
2023-03-10T05:11:42.687Z,50.30
2023-03-10T05:12:42.684Z,51.34
2023-03-10T05:13:42.679Z,52.51
2023-03-10T05:14:42.684Z,48.67
2023-03-10T05:15:42.747Z,51.95
2023-03-10T05:16:42.632Z,53.15
2023-03-10T05:17:42.619Z,52.61
2023-03-10T05:18:42.611Z,54.95
2023-03-10T05:19:42.609Z,48.93
2023-03-10T05:20:42.583Z,51.25
2023-03-10T05:21:42.571Z,50.62
2023-03-10T05:22:42.571Z,49.72
2023-03-10T05:23:42.547Z,48.66
2023-03-10T05:24:42.555Z,52.40
2023-03-10T05:25:42.527Z,49.30
2023-03-10T05:26:42.535Z,48.77
2023-03-10T05:27:42.514Z,49.33
2023-03-10T05:28:42.497Z,50.62
2023-03-10T05:29:42.510Z,49.58
2023-03-10T05:30:42.480Z,51.63
2023-03-10T05:31:42.587Z,53.24
2023-03-10T05:32:42.545Z,54.71
2023-03-10T05:33:42.443Z,54.74
2023-03-10T05:34:42.458Z,54.99
2023-03-10T05:35:42.430Z,54.72
2023-03-10T05:36:42.428Z,53.10
2023-03-10T05:37:42.409Z,55.75
2023-03-10T05:38:42.412Z,52.19
2023-03-10T05:39:42.387Z,49.42
2023-03-10T05:40:42.373Z,52.47
2023-03-10T05:41:42.355Z,55.45
2023-03-10T05:42:42.349Z,52.83
2023-03-10T05:43:42.335Z,52.11
2023-03-10T05:44:42.344Z,53.94
2023-03-10T05:45:42.307Z,52.01
2023-03-10T05:46:42.352Z,54.40
2023-03-10T05:47:42.312Z,54.56
2023-03-10T05:48:42.287Z,53.58
2023-03-10T05:49:42.278Z,50.05
2023-03-10T05:50:42.265Z,52.45
2023-03-10T05:51:42.252Z,53.64
2023-03-10T05:52:42.248Z,54.83
2023-03-10T05:53:42.231Z,51.62
2023-03-10T05:54:42.229Z,49.37
2023-03-10T05:55:42.209Z,53.47
2023-03-10T05:56:42.206Z,52.91
2023-03-10T05:57:42.238Z,53.44
2023-03-10T05:58:42.177Z,53.90
2023-03-10T05:59:42.325Z,54.86
2023-03-10T06:00:42.155Z,49.60
2023-03-10T06:01:42.143Z,52.96
2023-03-10T06:02:42.179Z,57.58
2023-03-10T06:03:42.293Z,52.85
2023-03-10T06:04:42.156Z,52.80
2023-03-10T06:05:42.110Z,54.97
2023-03-10T06:06:42.105Z,53.94
2023-03-10T06:07:42.088Z,57.24
2023-03-10T06:08:42.087Z,53.56
2023-03-10T06:09:42.077Z,56.88
2023-03-10T06:10:42.057Z,52.69
2023-03-10T06:11:42.066Z,52.76
2023-03-10T06:12:42.071Z,53.51
2023-03-10T06:13:43.460Z,55.79
2023-03-10T06:17:08.230Z,55.18
2023-03-10T06:18:08.190Z,58.38
2023-03-10T06:19:08.173Z,53.86
2023-03-10T06:20:08.172Z,56.61
2023-03-10T06:21:08.160Z,54.63
2023-03-10T06:22:08.168Z,56.55
2023-03-10T06:23:08.164Z,57.03
2023-03-10T06:24:08.170Z,54.11
2023-03-10T06:25:08.251Z,54.88
2023-03-10T06:26:08.102Z,56.08
2023-03-10T06:27:08.113Z,53.94
2023-03-10T06:28:09.743Z,51.78
2023-03-10T06:29:08.072Z,49.80
2023-03-10T06:30:08.079Z,53.57
2023-03-10T06:31:08.049Z,49.02
2023-03-10T06:32:08.081Z,55.26
2023-03-10T06:33:08.026Z,56.81
2023-03-10T06:34:08.027Z,55.66
2023-03-10T06:35:08.023Z,57.00
2023-03-10T06:36:08.065Z,56.12
2023-03-10T06:37:07.987Z,54.79
2023-03-10T06:38:07.971Z,57.36
2023-03-10T06:39:07.961Z,56.63
2023-03-10T06:40:07.979Z,54.04
2023-03-10T06:41:07.946Z,54.03
2023-03-10T06:42:07.944Z,51.92
2023-03-10T06:43:07.938Z,56.98
2023-03-10T06:44:07.920Z,54.60
2023-03-10T06:45:07.935Z,51.30
2023-03-10T06:46:07.938Z,55.10
2023-03-10T06:47:07.897Z,57.28
2023-03-10T06:48:07.868Z,58.17
2023-03-10T06:49:07.864Z,53.22
2023-03-10T06:50:07.867Z,57.01
2023-03-10T06:51:07.842Z,55.61
2023-03-10T06:52:07.836Z,57.08
2023-03-10T06:53:07.819Z,55.53
2023-03-10T06:54:07.835Z,57.78
2023-03-10T06:55:07.821Z,53.82
2023-03-10T06:56:07.810Z,53.80
2023-03-10T06:57:07.814Z,55.04
2023-03-10T06:58:07.779Z,56.27
2023-03-10T06:59:07.765Z,53.77
2023-03-10T07:00:07.786Z,51.66
2023-03-10T07:01:07.818Z,55.56
2023-03-10T07:02:07.786Z,50.33
2023-03-10T07:03:07.742Z,56.23
2023-03-10T07:04:07.719Z,50.93
2023-03-10T07:05:07.835Z,55.89
2023-03-10T07:06:07.755Z,56.37
2023-03-10T07:07:07.689Z,55.06
2023-03-10T07:08:07.703Z,51.95
2023-03-10T07:09:07.644Z,54.55
2023-03-10T07:10:08.377Z,49.90
2023-03-10T07:11:07.635Z,54.91
2023-03-10T07:12:07.614Z,50.79
2023-03-10T07:13:07.634Z,52.74
2023-03-10T07:14:07.587Z,54.55
2023-03-10T07:15:07.697Z,55.59
2023-03-10T07:16:07.564Z,51.28
2023-03-10T07:17:07.682Z,50.19
2023-03-10T07:18:07.548Z,50.34
2023-03-10T07:19:07.552Z,53.73
2023-03-10T07:20:07.537Z,49.62
2023-03-10T07:21:07.519Z,53.53
2023-03-10T07:22:08.611Z,48.70
2023-03-10T07:23:07.498Z,48.57
2023-03-10T07:24:07.517Z,56.12
2023-03-10T07:25:08.628Z,58.39
2023-03-10T07:26:07.494Z,54.45
2023-03-10T07:27:07.469Z,53.41
2023-03-10T07:28:07.457Z,55.48
2023-03-10T07:29:07.504Z,48.63
2023-03-10T07:30:07.478Z,51.46
2023-03-10T07:31:07.496Z,48.62
2023-03-10T07:32:07.413Z,51.41
2023-03-10T07:33:07.384Z,55.03
2023-03-10T07:34:07.378Z,52.90
2023-03-10T07:35:07.376Z,51.22
2023-03-10T07:36:07.589Z,53.73
2023-03-10T07:37:07.335Z,52.02
2023-03-10T07:38:07.328Z,50.91
2023-03-10T07:39:07.317Z,50.63
2023-03-10T07:40:07.317Z,53.94
2023-03-10T07:41:07.294Z,56.85
2023-03-10T07:42:07.309Z,51.74
2023-03-10T07:43:07.290Z,54.73
2023-03-10T07:44:07.285Z,50.16
2023-03-10T07:45:07.327Z,53.67
2023-03-10T07:46:07.275Z,54.44
2023-03-10T07:47:07.393Z,53.53
2023-03-10T07:48:07.245Z,51.35
2023-03-10T07:49:07.209Z,52.99
2023-03-10T07:50:07.211Z,54.40
2023-03-10T07:51:07.224Z,51.07
2023-03-10T07:52:07.196Z,54.81
2023-03-10T07:53:07.185Z,52.30
2023-03-10T07:54:07.158Z,49.93
2023-03-10T07:55:07.159Z,47.85
2023-03-10T07:56:07.171Z,52.16
2023-03-10T07:57:07.134Z,49.89
2023-03-10T07:58:07.119Z,47.44
2023-03-10T07:59:07.173Z,50.11
2023-03-10T08:00:07.174Z,51.53
2023-03-10T08:01:07.126Z,52.78
2023-03-10T08:02:08.744Z,53.20
2023-03-10T08:03:07.101Z,51.10
2023-03-10T08:04:07.187Z,50.75
2023-03-10T08:05:07.162Z,50.15
2023-03-10T08:06:07.062Z,50.69
2023-03-10T08:07:07.043Z,50.86
2023-03-10T08:08:07.063Z,51.56
2023-03-10T08:09:07.025Z,51.14
2023-03-10T08:10:07.052Z,54.07
2023-03-10T08:11:07.056Z,51.74
2023-03-10T08:12:06.972Z,50.50
2023-03-10T08:13:07.005Z,48.94
2023-03-10T08:14:06.990Z,54.07
2023-03-10T08:15:07.017Z,52.67
2023-03-10T08:16:07.066Z,49.70
2023-03-10T08:17:06.913Z,48.31
2023-03-10T08:18:06.910Z,52.68
2023-03-10T08:19:06.987Z,47.88
2023-03-10T08:20:06.900Z,52.05
2023-03-10T08:21:06.906Z,52.47
2023-03-10T08:22:06.871Z,50.20
2023-03-10T08:23:06.933Z,49.38
2023-03-10T08:24:06.853Z,53.72
2023-03-10T08:25:06.834Z,52.89
2023-03-10T08:26:06.850Z,55.00
2023-03-10T08:27:06.829Z,52.25
2023-03-10T08:28:06.825Z,55.46
2023-03-10T08:29:06.838Z,52.86
2023-03-10T08:30:06.772Z,55.14
2023-03-10T08:31:07.714Z,53.77
2023-03-10T08:32:06.833Z,55.66
2023-03-10T08:33:06.856Z,53.36
2023-03-10T08:34:06.754Z,51.15
2023-03-10T08:35:06.755Z,53.97
2023-03-10T08:36:06.821Z,52.88
2023-03-10T08:37:06.716Z,57.31
2023-03-10T08:38:06.698Z,50.77
2023-03-10T08:39:06.710Z,53.66
2023-03-10T08:40:06.671Z,50.57
2023-03-10T08:41:06.695Z,51.93
2023-03-10T08:42:06.689Z,51.69
2023-03-10T08:43:06.648Z,54.09
2023-03-10T08:44:06.622Z,52.86
2023-03-10T08:45:08.600Z,52.26
2023-03-10T08:46:08.465Z,53.33
2023-03-10T08:47:06.676Z,55.95
2023-03-10T08:48:06.594Z,55.02
2023-03-10T08:49:06.624Z,54.27
2023-03-10T08:50:06.568Z,50.70
2023-03-10T08:51:06.565Z,54.34
2023-03-10T08:52:06.675Z,51.03
2023-03-10T08:53:06.548Z,49.82
2023-03-10T08:54:06.535Z,49.52
2023-03-10T08:55:06.515Z,51.33
2023-03-10T08:56:06.537Z,51.03
2023-03-10T08:57:06.501Z,49.68
2023-03-10T08:58:06.479Z,49.58
2023-03-10T08:59:06.477Z,52.75
2023-03-10T09:00:06.476Z,53.28
2023-03-10T09:01:06.488Z,53.09
2023-03-10T09:02:06.590Z,51.69
2023-03-10T09:03:06.468Z,52.52
2023-03-10T09:04:06.434Z,53.03
2023-03-10T09:05:06.420Z,50.96
2023-03-10T09:06:06.414Z,50.60
2023-03-10T09:07:06.396Z,55.13
2023-03-10T09:08:06.415Z,51.57
2023-03-10T09:09:06.373Z,50.52
2023-03-10T09:10:06.361Z,53.70
2023-03-10T09:11:06.367Z,48.32
2023-03-10T09:12:06.411Z,50.53
2023-03-10T09:13:13.677Z,47.49
2023-03-10T09:14:07.356Z,55.09
2023-03-10T09:15:06.304Z,51.95
2023-03-10T09:16:06.466Z,49.83
2023-03-10T09:17:06.296Z,51.50
2023-03-10T09:18:06.276Z,52.57
2023-03-10T09:19:06.271Z,57.83
2023-03-10T09:20:06.256Z,51.88
2023-03-10T09:21:06.295Z,49.95
2023-03-10T09:22:06.260Z,51.46
2023-03-10T09:23:06.254Z,50.53
2023-03-10T09:24:06.214Z,53.70
2023-03-10T09:25:06.194Z,52.10
2023-03-10T09:26:06.194Z,51.30
2023-03-10T09:27:06.181Z,51.08
2023-03-10T09:28:06.204Z,52.32
2023-03-10T09:29:06.145Z,51.07
2023-03-10T09:30:06.154Z,49.74
2023-03-10T09:31:06.146Z,52.74
2023-03-10T09:32:08.603Z,49.24
2023-03-10T09:33:06.147Z,54.55
2023-03-10T09:34:06.095Z,54.00
2023-03-10T09:35:06.098Z,55.48
2023-03-10T09:36:07.448Z,48.02
2023-03-10T09:37:08.415Z,49.72
2023-03-10T09:38:06.046Z,50.01
2023-03-10T09:39:06.107Z,53.34
2023-03-10T09:40:06.462Z,54.68
2023-03-10T09:41:08.422Z,48.83
2023-03-10T09:42:06.010Z,55.13
2023-03-10T09:43:06.005Z,51.87
2023-03-10T09:44:05.990Z,54.08
2023-03-10T09:45:05.974Z,56.27
2023-03-10T09:46:06.009Z,48.76
2023-03-10T09:47:05.998Z,55.26
2023-03-10T09:48:05.944Z,51.11
2023-03-10T09:49:05.947Z,48.21
2023-03-10T09:50:05.917Z,47.61
2023-03-10T09:51:05.925Z,50.53
2023-03-10T09:52:05.898Z,48.86
2023-03-10T09:53:05.899Z,51.41
2023-03-10T09:54:05.882Z,50.10
2023-03-10T09:55:05.880Z,49.55
2023-03-10T09:56:05.886Z,50.56
2023-03-10T09:57:05.852Z,51.50
2023-03-10T09:58:05.858Z,52.06
2023-03-10T09:59:05.832Z,49.96
2023-03-10T10:00:05.805Z,52.99
2023-03-10T10:01:05.802Z,50.64
2023-03-10T10:02:05.806Z,49.98
2023-03-10T10:03:08.609Z,50.33
2023-03-10T10:04:05.963Z,53.30
2023-03-10T10:05:05.803Z,55.29
2023-03-10T10:06:05.745Z,53.60
2023-03-10T10:07:05.752Z,54.04
2023-03-10T10:08:05.737Z,54.62
2023-03-10T10:09:06.043Z,52.54
2023-03-10T10:10:05.770Z,49.45
2023-03-10T10:11:06.609Z,49.50
2023-03-10T10:12:05.690Z,50.67
2023-03-10T10:13:05.681Z,49.84
2023-03-10T10:14:06.245Z,54.18
2023-03-10T10:15:05.664Z,54.18
2023-03-10T10:16:24.359Z,62.82
2023-03-10T10:17:06.739Z,56.71
2023-03-10T10:18:17.972Z,55.21
2023-03-10T10:19:06.667Z,53.16
2023-03-10T10:20:05.601Z,52.75
2023-03-10T10:21:05.599Z,52.12
2023-03-10T10:22:05.603Z,50.87
2023-03-10T10:23:05.614Z,50.54
2023-03-10T10:24:05.590Z,54.82
2023-03-10T10:25:08.003Z,52.40
2023-03-10T10:26:05.560Z,56.76
2023-03-10T10:27:05.551Z,54.32
2023-03-10T10:28:05.519Z,54.40
2023-03-10T10:29:05.521Z,56.50
2023-03-10T10:30:05.504Z,53.58
2023-03-10T10:31:05.538Z,51.96
2023-03-10T10:32:05.517Z,54.05
2023-03-10T10:33:05.485Z,51.92
2023-03-10T10:34:05.462Z,54.06
2023-03-10T10:35:05.450Z,56.23
2023-03-10T10:36:05.526Z,49.78
2023-03-10T10:37:05.437Z,48.19
2023-03-10T10:38:06.971Z,48.53
2023-03-10T10:39:05.413Z,51.31
2023-03-10T10:40:06.146Z,53.71
2023-03-10T10:41:07.565Z,55.13
2023-03-10T10:42:05.395Z,53.10
2023-03-10T10:43:05.394Z,54.10
2023-03-10T10:44:05.367Z,51.15
2023-03-10T10:45:05.372Z,53.29
2023-03-10T10:46:05.364Z,53.18
2023-03-10T10:47:05.340Z,55.20
2023-03-10T10:48:05.320Z,52.41
2023-03-10T10:49:05.316Z,53.47
2023-03-10T10:50:05.298Z,52.97
2023-03-10T10:51:05.288Z,51.62
2023-03-10T10:52:05.303Z,53.88
2023-03-10T10:53:05.276Z,50.01
2023-03-10T10:54:05.257Z,53.04
2023-03-10T10:55:05.255Z,55.33
2023-03-10T10:56:05.235Z,50.13
2023-03-10T10:57:05.240Z,49.35
2023-03-10T10:58:05.217Z,51.85
2023-03-10T10:59:05.227Z,48.87
2023-03-10T11:00:05.196Z,55.75
2023-03-10T11:01:05.239Z,51.93
2023-03-10T11:02:05.208Z,54.11
2023-03-10T11:03:05.176Z,50.17
2023-03-10T11:04:05.161Z,56.52
2023-03-10T11:05:05.180Z,54.13
2023-03-10T11:06:05.134Z,51.14
2023-03-10T11:07:05.117Z,50.31
2023-03-10T11:08:05.156Z,54.85
2023-03-10T11:09:06.494Z,53.95
2023-03-10T11:10:05.080Z,51.09
2023-03-10T11:11:05.072Z,56.35
2023-03-10T11:12:05.165Z,55.98
2023-03-10T11:13:05.720Z,54.23
2023-03-10T11:14:05.036Z,50.53
2023-03-10T11:15:05.045Z,54.21
2023-03-10T11:16:05.098Z,51.73
2023-03-10T11:17:05.012Z,49.66
2023-03-10T11:18:05.029Z,51.07
2023-03-10T11:19:04.989Z,49.96
2023-03-10T11:20:05.050Z,51.72
2023-03-10T11:21:04.986Z,53.61
2023-03-10T11:22:04.992Z,50.11
2023-03-10T11:23:04.957Z,49.38
2023-03-10T11:24:04.929Z,49.23
2023-03-10T11:25:04.933Z,53.59
2023-03-10T11:26:04.910Z,50.37
2023-03-10T11:27:04.903Z,46.45
2023-03-10T11:28:04.899Z,53.26
2023-03-10T11:29:04.939Z,52.10
2023-03-10T11:30:04.878Z,52.90
2023-03-10T11:31:04.893Z,46.89
2023-03-10T11:32:04.845Z,49.28
2023-03-10T11:33:04.851Z,50.06
2023-03-10T11:34:04.823Z,46.74
2023-03-10T11:35:04.818Z,49.28
2023-03-10T11:36:04.844Z,52.21
2023-03-10T11:37:04.817Z,52.01
2023-03-10T11:38:04.810Z,54.13
2023-03-10T11:39:04.780Z,48.91
2023-03-10T11:40:04.965Z,51.27
2023-03-10T11:41:04.766Z,49.20
2023-03-10T11:42:04.745Z,51.91
2023-03-10T11:43:04.752Z,54.26
2023-03-10T11:44:04.723Z,50.68
2023-03-10T11:45:04.739Z,53.67
2023-03-10T11:46:04.747Z,50.64
2023-03-10T11:47:04.695Z,52.95
2023-03-10T11:48:04.696Z,52.35
2023-03-10T11:49:04.691Z,49.14
2023-03-10T11:50:04.655Z,54.94
2023-03-10T11:51:04.656Z,57.07
2023-03-10T11:52:04.639Z,56.08
2023-03-10T11:53:05.479Z,50.92
2023-03-10T11:54:04.612Z,51.78
2023-03-10T11:55:04.601Z,53.34
2023-03-10T11:56:04.589Z,53.65
2023-03-10T11:57:04.579Z,53.37
2023-03-10T11:58:04.577Z,50.99
2023-03-10T11:59:04.562Z,49.64
2023-03-10T12:00:04.544Z,51.83
2023-03-10T12:01:04.532Z,56.77
2023-03-10T12:02:04.522Z,53.07
2023-03-10T12:03:04.530Z,53.96
2023-03-10T12:04:04.518Z,47.10
2023-03-10T12:05:05.321Z,50.06
2023-03-10T12:06:04.482Z,54.71
2023-03-10T12:07:04.479Z,54.88
2023-03-10T12:08:04.469Z,53.96
2023-03-10T12:09:04.462Z,52.07
2023-03-10T12:10:05.805Z,54.02
2023-03-10T12:11:04.529Z,55.19
2023-03-10T12:12:04.410Z,55.34
2023-03-10T12:13:04.428Z,55.76
2023-03-10T12:14:04.407Z,54.36
2023-03-10T12:15:04.381Z,54.52
2023-03-10T12:16:04.410Z,55.32
2023-03-10T12:17:04.359Z,57.01
2023-03-10T12:18:04.370Z,54.51
2023-03-10T12:19:04.750Z,52.58
2023-03-10T12:20:04.346Z,55.24
2023-03-10T12:21:04.321Z,53.77
2023-03-10T12:22:04.309Z,57.48
2023-03-10T12:23:04.355Z,56.52
2023-03-10T12:24:04.317Z,57.95
2023-03-10T12:25:04.277Z,54.18
2023-03-10T12:26:04.275Z,57.54
2023-03-10T12:27:04.262Z,59.36
2023-03-10T12:28:04.241Z,59.20
2023-03-10T12:29:04.251Z,61.56
2023-03-10T12:30:04.252Z,60.64
2023-03-10T12:31:04.297Z,61.36
2023-03-10T12:32:04.222Z,57.64
2023-03-10T12:33:04.196Z,56.93
2023-03-10T12:34:04.199Z,54.75
2023-03-10T12:35:04.177Z,54.03
2023-03-10T12:36:05.383Z,54.18
2023-03-10T12:37:05.298Z,54.31
2023-03-10T12:38:26.373Z,57.25
2023-03-10T12:39:05.272Z,53.50
2023-03-10T12:40:05.311Z,48.92
2023-03-10T12:41:05.270Z,50.37
2023-03-10T12:42:05.309Z,51.74
2023-03-10T12:43:05.231Z,52.78
2023-03-10T12:44:05.269Z,47.87
2023-03-10T12:45:05.217Z,45.07
2023-03-10T12:46:05.243Z,53.74
2023-03-10T12:47:05.239Z,47.55
2023-03-10T12:48:05.219Z,56.23
2023-03-10T12:49:05.188Z,54.02
2023-03-10T12:50:05.363Z,56.49
2023-03-10T12:51:05.151Z,55.35
2023-03-10T12:52:05.145Z,53.56
2023-03-10T12:53:05.138Z,52.10
2023-03-10T12:54:05.151Z,49.96
2023-03-10T12:55:05.116Z,54.60
2023-03-10T12:56:05.098Z,54.89
2023-03-10T12:57:05.152Z,51.47
2023-03-10T12:58:05.114Z,53.07
2023-03-10T12:59:05.343Z,54.75